Terminal Aerodrome Forecast
Issued by NWS

Home | Current Version | Previous Version | Text Only | Print | Product List | Glossary On
Versions: 1 2 3 4 5 6 7 8 9 10 11 12 13 14
000
FTUS44 KLZK 250500
TAFLIT
TAF
KLIT 250524Z 2506/2606 25004KT P6SM OVC035
     FM250800 26003KT P6SM SCT035
     FM251700 18012G22KT P6SM SCT250
     FM260000 16008KT P6SM SCT020 SCT250=

USA.gov is the U.S. government's official web portal to all federal, state and local government web resources and services.